Time;durP1;ratioP1;P1;durP2;ratioP2;P2;SDS_P1;SDS_P2;PMS_P1;PMS_P2;Temp;Humidity;BMP_temperature;BMP_pressure;BME280_temperature;BME280_humidity;BME280_pressure;Samples;Min_cycle;Max_cycle;Signal;HPM_P1;HPM_P2
2023/03/16 00:02:09;;;;;;;6.90;6.22;;;6.10;99.90;;;;;;5036396;28;20635;-70
2023/03/16 00:04:36;;;;;;;10.88;7.45;;;6.10;99.90;;;;;;5037421;28;20029;-69
2023/03/16 00:07:03;;;;;;;7.97;5.78;;;6.10;99.90;;;;;;5037649;28;20025;-69
2023/03/16 00:09:32;;;;;;;7.72;5.57;;;6.00;99.90;;;;;;5035834;28;20566;-69
2023/03/16 00:12:02;;;;;;;7.03;5.80;;;6.00;99.90;;;;;;5037622;28;20501;-69
2023/03/16 00:14:29;;;;;;;6.97;5.30;;;6.00;99.90;;;;;;5037324;28;20444;-69
2023/03/16 00:16:55;;;;;;;7.78;5.45;;;6.00;99.90;;;;;;5037625;28;20018;-69
2023/03/16 00:19:21;;;;;;;6.65;4.97;;;5.90;99.90;;;;;;5037217;28;20033;-69
2023/03/16 00:21:51;;;;;;;6.68;4.65;;;5.90;99.90;;;;;;5036008;28;20021;-69
2023/03/16 00:24:18;;;;;;;9.05;4.45;;;5.90;99.90;;;;;;5035655;28;20486;-69
2023/03/16 00:26:47;;;;;;;8.43;5.50;;;5.90;99.90;;;;;;5037611;28;20031;-69
2023/03/16 00:29:13;;;;;;;5.05;4.55;;;5.80;99.90;;;;;;5037205;28;20018;-69
2023/03/16 00:31:42;;;;;;;9.80;5.57;;;5.80;99.90;;;;;;5035980;28;20393;-69
2023/03/16 00:34:09;;;;;;;11.30;5.90;;;5.70;99.90;;;;;;5035842;28;20068;-69
2023/03/16 00:36:37;;;;;;;6.05;5.40;;;5.70;99.90;;;;;;5037053;28;20083;-69
2023/03/16 00:39:06;;;;;;;8.32;5.15;;;5.70;99.90;;;;;;5036832;28;20486;-69
2023/03/16 00:41:36;;;;;;;7.63;6.55;;;5.70;99.90;;;;;;5026376;28;20076;-69
2023/03/16 00:44:03;;;;;;;8.15;6.15;;;5.60;99.90;;;;;;5017517;28;20022;-69
2023/03/16 00:46:29;;;;;;;11.75;6.53;;;5.60;99.90;;;;;;5025210;28;20030;-69
2023/03/16 00:48:54;;;;;;;8.05;6.63;;;5.60;99.90;;;;;;5017248;28;20091;-69
2023/03/16 00:51:21;;;;;;;7.18;6.45;;;5.50;99.90;;;;;;5017106;28;20049;-69
2023/03/16 00:53:48;;;;;;;7.15;6.43;;;5.50;99.90;;;;;;5016951;28;20022;-70
2023/03/16 00:56:14;;;;;;;9.93;6.25;;;5.40;99.90;;;;;;5017354;28;20026;-70
2023/03/16 00:58:41;;;;;;;8.57;6.28;;;5.40;99.90;;;;;;5017059;28;20010;-69
2023/03/16 01:01:15;;;;;;;8.90;6.82;;;5.40;99.90;;;;;;5017195;28;20055;-69
2023/03/16 01:03:42;;;;;;;9.90;6.47;;;5.30;99.90;;;;;;5015926;28;20026;-69
2023/03/16 01:06:14;;;;;;;10.35;7.38;;;5.20;99.90;;;;;;5017169;28;20033;-69
2023/03/16 01:08:40;;;;;;;14.10;8.57;;;5.20;99.90;;;;;;5017300;28;20026;-69
2023/03/16 01:11:10;;;;;;;11.95;8.50;;;5.20;99.90;;;;;;5016865;28;20044;-69
2023/03/16 01:13:36;;;;;;;8.40;7.53;;;5.20;99.90;;;;;;5017235;28;20104;-69
2023/03/16 01:16:02;;;;;;;14.90;8.98;;;5.20;99.90;;;;;;5016648;28;20060;-69
2023/03/16 01:18:29;;;;;;;12.55;8.52;;;5.20;99.90;;;;;;5020932;28;20018;-69
2023/03/16 01:20:54;;;;;;;9.38;7.75;;;5.10;99.90;;;;;;5020716;28;20514;-69
2023/03/16 01:23:20;;;;;;;10.15;7.95;;;5.10;99.90;;;;;;5019478;28;20413;-69
2023/03/16 01:25:53;;;;;;;12.95;8.88;;;5.10;99.90;;;;;;5020503;28;20088;-69
2023/03/16 01:28:24;;;;;;;7.75;6.95;;;5.00;99.90;;;;;;5020970;28;20061;-69
2023/03/16 01:30:57;;;;;;;11.35;8.20;;;5.00;99.90;;;;;;5020689;28;20042;-69
2023/03/16 01:33:25;;;;;;;13.38;8.20;;;5.00;99.90;;;;;;5019278;28;20378;-69
2023/03/16 01:35:58;;;;;;;10.88;8.30;;;5.00;99.90;;;;;;5020378;28;20441;-69
2023/03/16 01:38:25;;;;;;;10.90;8.35;;;4.90;99.90;;;;;;5020580;28;20022;-69
2023/03/16 01:40:52;;;;;;;9.82;8.45;;;4.90;99.90;;;;;;5032070;28;20383;-69
2023/03/16 01:43:23;;;;;;;10.65;7.80;;;4.90;99.90;;;;;;5020432;28;20022;-69
2023/03/16 01:46:04;;;;;;;8.18;7.38;;;4.90;99.90;;;;;;5028413;28;20026;-69
2023/03/16 01:48:47;;;;;;;10.05;7.78;;;4.90;99.90;;;;;;5020196;28;20030;-69
2023/03/16 01:51:28;;;;;;;8.15;7.22;;;4.90;99.90;;;;;;5020148;28;20045;-69
2023/03/16 01:53:56;;;;;;;;;;;4.90;99.90;;;;;;5020433;28;20040;-69
2023/03/16 01:56:26;;;;;;;9.32;8.02;;;4.90;99.90;;;;;;5018819;28;19910;-69
2023/03/16 01:58:57;;;;;;;9.00;7.10;;;4.80;99.90;;;;;;5027201;28;20394;-69
2023/03/16 02:01:24;;;;;;;11.10;7.47;;;4.90;99.90;;;;;;5038775;28;20022;-69
2023/03/16 02:03:54;;;;;;;8.10;7.00;;;4.90;99.90;;;;;;5039991;28;20747;-70
2023/03/16 02:06:22;;;;;;;11.77;7.97;;;5.00;99.90;;;;;;5039890;28;20369;-70
2023/03/16 02:08:49;;;;;;;9.65;7.80;;;4.90;99.90;;;;;;5039589;28;20120;-70
2023/03/16 02:11:18;;;;;;;14.30;8.15;;;5.00;99.90;;;;;;5039656;28;20040;-70
2023/03/16 02:13:45;;;;;;;9.60;8.10;;;4.90;99.90;;;;;;5039729;28;20037;-70
2023/03/16 02:16:13;;;;;;;10.45;8.60;;;4.90;99.90;;;;;;5039530;28;20070;-70
2023/03/16 02:18:39;;;;;;;12.38;8.43;;;4.80;99.90;;;;;;5039736;28;20032;-70
2023/03/16 02:21:34;;;;;;;9.55;7.95;;;4.80;99.90;;;;;;5037995;28;20033;-70
2023/03/16 02:24:02;;;;;;;9.30;7.65;;;4.80;99.90;;;;;;5039221;28;20025;-69
2023/03/16 02:26:43;;;;;;;14.10;8.20;;;4.80;99.90;;;;;;5039490;28;20489;-70
2023/03/16 02:29:51;;;;;;;11.43;8.05;;;4.70;99.90;;;;;;5038382;28;20026;-70
2023/03/16 02:32:18;;;;;;;8.27;7.25;;;4.70;99.90;;;;;;5039279;28;20024;-70
2023/03/16 02:34:44;;;;;;;9.80;8.80;;;4.70;99.90;;;;;;5039293;28;20497;-70
2023/03/16 02:37:10;;;;;;;10.30;9.05;;;4.70;99.90;;;;;;5039014;28;20017;-70
2023/03/16 02:39:36;;;;;;;8.80;7.65;;;4.70;99.90;;;;;;5037720;28;20028;-70
2023/03/16 02:42:03;;;;;;;9.30;8.30;;;4.70;99.90;;;;;;5023978;28;20559;-70
2023/03/16 02:44:35;;;;;;;9.88;8.50;;;4.60;99.90;;;;;;5021641;28;20501;-70
2023/03/16 02:47:16;;;;;;;9.60;7.65;;;4.60;99.90;;;;;;5023035;28;20032;-70
2023/03/16 02:49:44;;;;;;;9.90;8.90;;;4.50;99.90;;;;;;5019311;28;20022;-70
2023/03/16 02:52:11;;;;;;;10.82;7.85;;;4.50;99.90;;;;;;5017533;28;20045;-70
2023/03/16 02:54:37;;;;;;;12.38;9.20;;;4.50;99.90;;;;;;5018892;28;20030;-70
2023/03/16 02:57:03;;;;;;;10.60;9.60;;;4.50;99.90;;;;;;5018954;28;20080;-70
2023/03/16 02:59:30;;;;;;;11.23;9.13;;;4.50;99.90;;;;;;5017716;28;20470;-70
2023/03/16 03:01:56;;;;;;;10.82;9.65;;;4.50;99.90;;;;;;5018889;28;20026;-70
2023/03/16 03:04:22;;;;;;;9.50;8.50;;;4.40;99.90;;;;;;5019028;28;20097;-70
2023/03/16 03:06:48;;;;;;;13.10;10.15;;;4.40;99.90;;;;;;5018625;28;20017;-70
2023/03/16 03:09:14;;;;;;;11.48;10.13;;;4.40;99.90;;;;;;5018589;28;20077;-70
2023/03/16 03:11:39;;;;;;;12.68;10.55;;;4.40;99.90;;;;;;5018634;28;20509;-70
2023/03/16 03:14:05;;;;;;;11.38;9.65;;;4.40;99.90;;;;;;5018712;28;20053;-70
2023/03/16 03:16:31;;;;;;;11.15;9.30;;;4.40;99.90;;;;;;5018470;28;20069;-69
2023/03/16 03:18:58;;;;;;;10.27;9.25;;;4.30;99.90;;;;;;5018651;28;20018;-69
2023/03/16 03:21:24;;;;;;;11.82;8.93;;;4.30;99.90;;;;;;5018344;28;20110;-70
2023/03/16 03:23:50;;;;;;;10.43;8.88;;;4.30;99.90;;;;;;5018326;28;20122;-70
2023/03/16 03:26:16;;;;;;;14.07;9.63;;;4.30;99.90;;;;;;5018396;28;20026;-70
2023/03/16 03:28:43;;;;;;;10.23;9.10;;;4.30;99.90;;;;;;5018475;28;20028;-70
2023/03/16 03:31:16;;;;;;;12.15;8.40;;;4.40;99.90;;;;;;5018261;28;20026;-70
2023/03/16 03:33:42;;;;;;;13.38;9.00;;;4.50;99.90;;;;;;5018350;28;20022;-70
2023/03/16 03:36:10;;;;;;;8.63;7.78;;;4.50;99.90;;;;;;5018158;28;20026;-70
2023/03/16 03:38:36;;;;;;;10.65;7.00;;;4.60;99.90;;;;;;5018032;28;20018;-70
2023/03/16 03:41:03;;;;;;;9.00;7.53;;;4.90;99.90;;;;;;5031211;28;20579;-69
2023/03/16 03:43:29;;;;;;;7.20;6.22;;;5.00;99.90;;;;;;5018156;28;20022;-70
2023/03/16 03:45:59;;;;;;;10.60;6.20;;;5.20;99.90;;;;;;5026572;28;20108;-70
2023/03/16 03:48:26;;;;;;;5.97;5.47;;;5.40;99.90;;;;;;5018158;28;20564;-70
2023/03/16 03:50:52;;;;;;;7.70;5.75;;;5.40;99.90;;;;;;5018045;28;20261;-69
2023/03/16 03:53:18;;;;;;;6.75;5.53;;;5.50;99.90;;;;;;5017911;28;20389;-69
2023/03/16 03:55:44;;;;;;;6.25;5.57;;;5.50;99.90;;;;;;5016535;28;20033;-70
2023/03/16 03:58:11;;;;;;;6.45;5.85;;;5.50;99.90;;;;;;5018058;28;20075;-69
2023/03/16 04:00:37;;;;;;;6.28;4.97;;;5.50;99.90;;;;;;5016358;28;20033;-70
2023/03/16 04:03:03;;;;;;;7.82;5.30;;;5.40;99.90;;;;;;5017734;28;20176;-70
2023/03/16 04:05:29;;;;;;;6.10;5.03;;;5.40;99.90;;;;;;5017315;28;20018;-70
2023/03/16 04:07:56;;;;;;;5.95;5.05;;;5.30;99.90;;;;;;5017404;28;20568;-70
2023/03/16 04:10:27;;;;;;;6.93;4.90;;;5.20;99.90;;;;;;5017607;28;20397;-70
2023/03/16 04:12:54;;;;;;;6.60;5.13;;;5.10;99.90;;;;;;5016391;28;20037;-70
2023/03/16 04:15:21;;;;;;;8.05;5.13;;;5.00;99.90;;;;;;5017576;28;20805;-70
2023/03/16 04:17:48;;;;;;;5.53;4.50;;;5.00;99.90;;;;;;5017865;28;20037;-70
2023/03/16 04:20:18;;;;;;;6.32;5.72;;;5.00;99.90;;;;;;5016472;28;20556;-70
2023/03/16 04:22:46;;;;;;;7.77;4.50;;;5.10;99.90;;;;;;5017555;28;20104;-70
2023/03/16 04:25:14;;;;;;;5.43;3.92;;;5.10;99.90;;;;;;5017342;28;20041;-70
2023/03/16 04:27:41;;;;;;;6.47;4.05;;;5.20;99.90;;;;;;5016196;28;20028;-70
2023/03/16 04:30:10;;;;;;;5.20;4.28;;;5.30;99.90;;;;;;5017618;28;20037;-70
2023/03/16 04:32:36;;;;;;;7.28;3.78;;;5.30;99.90;;;;;;5017677;28;20022;-70
2023/03/16 04:35:03;;;;;;;4.35;3.95;;;5.40;99.90;;;;;;5017412;28;20092;-70
2023/03/16 04:37:28;;;;;;;4.22;3.83;;;5.50;99.90;;;;;;5017176;28;20030;-70
2023/03/16 04:39:54;;;;;;;4.50;3.70;;;5.60;99.90;;;;;;5028135;28;20033;-70
2023/03/16 04:42:20;;;;;;;5.90;3.70;;;5.70;99.90;;;;;;5019755;28;20025;-70
2023/03/16 04:44:46;;;;;;;4.68;3.97;;;5.70;99.90;;;;;;5023367;28;20022;-70
2023/03/16 04:47:14;;;;;;;3.70;3.40;;;5.70;99.90;;;;;;5019733;28;20030;-70
2023/03/16 04:49:41;;;;;;;5.32;3.38;;;5.70;99.90;;;;;;5016184;28;20022;-70
2023/03/16 04:52:07;;;;;;;5.90;3.50;;;5.70;99.90;;;;;;5019863;28;20054;-70
2023/03/16 04:54:33;;;;;;;4.00;3.60;;;5.70;99.90;;;;;;5021264;28;20018;-69
2023/03/16 04:57:00;;;;;;;9.27;3.80;;;5.70;99.90;;;;;;5021230;28;20033;-70
2023/03/16 04:59:26;;;;;;;5.95;3.50;;;5.70;99.90;;;;;;5021320;28;20113;-69
2023/03/16 05:01:52;;;;;;;7.88;3.60;;;5.60;99.90;;;;;;5019858;28;20032;-69
2023/03/16 05:04:18;;;;;;;4.15;3.75;;;5.60;99.90;;;;;;5021439;28;20030;-69
2023/03/16 05:06:44;;;;;;;4.03;3.65;;;5.70;99.90;;;;;;5020897;28;20025;-70
2023/03/16 05:09:10;;;;;;;6.45;3.80;;;5.70;99.90;;;;;;5020919;28;20034;-70
2023/03/16 05:11:36;;;;;;;4.10;3.80;;;5.70;99.90;;;;;;5019582;28;20494;-69
2023/03/16 05:14:02;;;;;;;4.57;3.72;;;5.70;99.90;;;;;;5021044;28;20575;-70
2023/03/16 05:16:28;;;;;;;8.13;4.05;;;5.70;99.90;;;;;;5019385;28;20021;-70
2023/03/16 05:18:57;;;;;;;7.15;3.92;;;5.70;99.90;;;;;;5019623;28;20080;-70
2023/03/16 05:21:23;;;;;;;3.80;3.50;;;5.70;99.90;;;;;;5020696;28;20018;-70
2023/03/16 05:23:49;;;;;;;4.75;3.90;;;5.70;99.90;;;;;;5019253;28;20034;-70
2023/03/16 05:26:15;;;;;;;6.50;4.00;;;5.70;99.90;;;;;;5019300;28;20029;-70
2023/03/16 05:28:41;;;;;;;4.55;4.15;;;5.70;99.90;;;;;;5019546;28;20410;-70
2023/03/16 05:31:07;;;;;;;4.55;3.83;;;5.70;99.90;;;;;;5020617;28;20459;-70
2023/03/16 05:33:33;;;;;;;3.58;3.35;;;5.70;99.90;;;;;;5020756;28;20045;-70
2023/03/16 05:35:59;;;;;;;7.47;3.67;;;5.70;99.90;;;;;;5020239;28;20502;-69
2023/03/16 05:38:26;;;;;;;5.90;4.10;;;5.70;99.90;;;;;;5020658;28;20029;-70
2023/03/16 05:40:53;;;;;;;6.32;4.00;;;5.80;99.90;;;;;;5033406;28;20017;-69
2023/03/16 05:43:20;;;;;;;4.55;3.80;;;5.80;99.90;;;;;;5020445;28;20022;-69
2023/03/16 05:45:46;;;;;;;5.10;3.78;;;5.90;99.90;;;;;;5028616;28;20038;-70
2023/03/16 05:48:13;;;;;;;3.75;3.45;;;6.00;99.90;;;;;;5019321;28;20026;-70
2023/03/16 05:50:40;;;;;;;4.78;3.65;;;6.00;99.90;;;;;;5020119;28;20394;-71
2023/03/16 05:53:05;;;;;;;7.00;4.00;;;6.10;99.90;;;;;;5020208;28;20034;-70
2023/03/16 05:55:31;;;;;;;4.88;3.80;;;6.10;99.90;;;;;;5019903;28;20026;-70
2023/03/16 05:57:57;;;;;;;5.93;3.75;;;6.20;99.90;;;;;;5020230;28;20036;-69
2023/03/16 06:00:24;;;;;;;3.95;3.65;;;6.20;99.90;;;;;;5020058;28;20022;-70
2023/03/16 06:02:50;;;;;;;5.82;4.05;;;6.30;99.90;;;;;;5018659;28;20026;-70
2023/03/16 06:05:18;;;;;;;8.07;3.40;;;6.50;99.90;;;;;;5019981;28;20076;-69
2023/03/16 06:07:44;;;;;;;7.38;3.70;;;6.60;99.90;;;;;;5019980;28;20048;-69
2023/03/16 06:10:11;;;;;;;6.55;3.83;;;6.60;99.90;;;;;;5019656;28;20024;-69
2023/03/16 06:12:37;;;;;;;7.45;4.20;;;6.60;99.90;;;;;;5019865;28;20026;-70
2023/03/16 06:15:07;;;;;;;7.20;3.63;;;6.70;99.90;;;;;;5018430;28;20029;-70
2023/03/16 06:17:34;;;;;;;7.65;3.60;;;6.80;99.90;;;;;;5019964;28;20061;-70
2023/03/16 06:20:00;;;;;;;5.40;3.40;;;6.90;99.90;;;;;;5019829;28;20034;-70
2023/03/16 06:22:26;;;;;;;4.45;4.05;;;6.90;99.90;;;;;;5018359;28;20034;-70
2023/03/16 06:24:51;;;;;;;5.03;3.70;;;7.00;99.90;;;;;;5028863;28;20045;-70
2023/03/16 06:27:19;;;;;;;6.25;4.82;;;7.10;99.90;;;;;;5030841;28;20025;-69
2023/03/16 06:29:45;;;;;;;4.35;3.20;;;7.20;99.90;;;;;;5030892;28;20036;-70
2023/03/16 06:32:12;;;;;;;4.53;3.22;;;7.30;99.90;;;;;;5030762;28;20049;-70
2023/03/16 06:34:37;;;;;;;4.82;3.20;;;7.50;99.90;;;;;;5029890;28;20009;-70
2023/03/16 06:37:03;;;;;;;6.55;3.40;;;7.50;99.90;;;;;;5030009;28;20101;-70
2023/03/16 06:39:30;;;;;;;4.60;3.80;;;7.60;99.90;;;;;;5031046;28;20018;-70
2023/03/16 06:41:56;;;;;;;4.00;3.35;;;7.70;99.90;;;;;;5030511;28;20037;-70
2023/03/16 06:44:22;;;;;;;6.95;4.55;;;7.80;99.90;;;;;;5031712;28;20106;-70
2023/03/16 06:46:47;;;;;;;3.60;3.25;;;7.90;99.90;;;;;;5029773;28;20053;-70
2023/03/16 06:49:13;;;;;;;3.50;3.08;;;8.00;99.90;;;;;;5024434;28;20535;-70
2023/03/16 06:51:38;;;;;;;6.22;3.50;;;8.00;99.90;;;;;;5019133;28;20042;-70
2023/03/16 06:54:04;;;;;;;3.90;3.50;;;8.10;99.90;;;;;;5042392;28;20055;-69
2023/03/16 06:56:30;;;;;;;5.88;3.53;;;8.10;99.90;;;;;;5049544;28;20024;-69
2023/03/16 06:58:56;;;;;;;7.68;3.30;;;8.20;99.90;;;;;;5039129;28;20021;-69
2023/03/16 07:01:22;;;;;;;4.07;3.42;;;8.30;99.90;;;;;;5039747;28;20074;-69
2023/03/16 07:03:48;;;;;;;4.43;3.28;;;8.40;99.90;;;;;;5041973;28;20021;-69
2023/03/16 07:06:14;;;;;;;4.43;3.47;;;8.40;99.90;;;;;;5055453;28;20397;-68
2023/03/16 07:08:41;;;;;;;4.93;3.28;;;8.40;99.90;;;;;;5056130;28;20028;-69
2023/03/16 07:11:07;;;;;;;4.95;3.08;;;8.50;99.90;;;;;;5048356;28;20431;-70
2023/03/16 07:13:34;;;;;;;7.22;3.45;;;8.60;99.90;;;;;;5041397;28;20025;-68
2023/03/16 07:16:00;;;;;;;4.85;3.97;;;8.70;99.90;;;;;;5046491;28;20025;-69
2023/03/16 07:18:26;;;;;;;6.22;3.17;;;8.80;99.90;;;;;;5040485;28;20051;-68
2023/03/16 07:20:53;;;;;;;4.00;3.00;;;8.80;99.90;;;;;;5055909;28;20443;-69
2023/03/16 07:23:19;;;;;;;5.10;3.03;;;8.90;99.90;;;;;;5053657;28;20020;-69
2023/03/16 07:25:44;;;;;;;6.15;3.20;;;9.00;99.90;;;;;;5036362;28;20033;-69
2023/03/16 07:28:10;;;;;;;6.72;2.60;;;9.10;99.90;;;;;;5051489;28;20028;-69
2023/03/16 07:30:36;;;;;;;7.13;2.85;;;9.10;99.90;;;;;;5054424;28;20028;-69
2023/03/16 07:33:03;;;;;;;5.10;3.20;;;9.20;99.90;;;;;;5049986;28;20024;-69
2023/03/16 07:35:30;;;;;;;8.10;3.20;;;9.30;99.90;;;;;;5054353;28;20029;-69
2023/03/16 07:37:55;;;;;;;9.30;3.20;;;9.40;99.90;;;;;;5050695;28;20028;-69
2023/03/16 07:40:22;;;;;;;7.30;2.95;;;9.50;99.90;;;;;;5051890;28;20094;-69
2023/03/16 07:42:48;;;;;;;9.27;3.13;;;9.60;99.90;;;;;;5049649;28;20078;-69
2023/03/16 07:45:16;;;;;;;5.28;3.10;;;9.70;99.90;;;;;;5040834;28;20505;-69
2023/03/16 07:47:42;;;;;;;6.25;3.17;;;9.80;99.90;;;;;;5046482;28;20067;-69
2023/03/16 07:50:10;;;;;;;3.75;2.67;;;9.80;99.90;;;;;;5049026;28;20032;-69
2023/03/16 07:52:35;;;;;;;4.93;3.10;;;9.90;99.90;;;;;;5047244;28;20404;-69
2023/03/16 07:55:01;;;;;;;7.13;4.13;;;10.00;99.90;;;;;;5049577;28;20033;-69
2023/03/16 07:57:27;;;;;;;8.18;4.65;;;10.00;99.90;;;;;;5048955;28;20033;-69
2023/03/16 07:59:52;;;;;;;7.40;4.88;;;10.10;99.90;;;;;;5049345;28;20021;-69
2023/03/16 08:02:20;;;;;;;7.15;4.85;;;10.20;99.90;;;;;;5048321;28;20017;-69
2023/03/16 08:04:46;;;;;;;6.40;4.85;;;10.30;99.90;;;;;;5049113;28;20040;-69
2023/03/16 08:07:13;;;;;;;13.15;3.83;;;10.40;99.90;;;;;;5048082;28;20092;-69
2023/03/16 08:09:40;;;;;;;9.25;4.60;;;10.40;99.90;;;;;;5046407;28;20052;-69
2023/03/16 08:12:07;;;;;;;7.32;3.65;;;10.50;99.90;;;;;;5047480;28;20025;-69
2023/03/16 08:14:33;;;;;;;6.68;3.40;;;10.60;99.90;;;;;;5046322;28;20018;-69
2023/03/16 08:17:08;;;;;;;8.40;3.08;;;10.60;99.90;;;;;;5044171;28;20474;-69
2023/03/16 08:19:33;;;;;;;4.78;3.10;;;10.70;99.90;;;;;;5032539;28;20026;-69
2023/03/16 08:22:02;;;;;;;6.22;3.65;;;10.70;99.90;;;;;;5054208;28;20036;-69
2023/03/16 08:24:29;;;;;;;6.60;3.42;;;10.80;99.90;;;;;;5051064;28;20021;-69
2023/03/16 08:26:56;;;;;;;8.60;3.45;;;10.80;99.90;;;;;;5052290;28;20028;-69
2023/03/16 08:29:22;;;;;;;8.38;4.63;;;10.90;99.90;;;;;;5025183;28;20089;-69
2023/03/16 08:31:48;;;;;;;5.45;3.60;;;10.90;99.90;;;;;;5025829;28;20025;-69
2023/03/16 08:34:14;;;;;;;5.03;2.90;;;11.00;99.90;;;;;;5026990;28;20481;-69
2023/03/16 08:36:42;;;;;;;7.35;3.05;;;11.00;99.90;;;;;;5034882;28;20029;-69
2023/03/16 08:39:08;;;;;;;6.38;2.70;;;11.10;99.90;;;;;;5034448;28;20045;-69
2023/03/16 08:41:34;;;;;;;6.22;3.08;;;11.00;99.90;;;;;;5037097;28;20124;-69
2023/03/16 08:44:01;;;;;;;5.07;2.63;;;11.10;99.90;;;;;;5039033;28;20107;-69
2023/03/16 08:46:27;;;;;;;15.93;3.28;;;11.20;99.90;;;;;;5034114;28;20026;-69
2023/03/16 08:48:54;;;;;;;6.50;2.65;;;11.30;99.90;;;;;;5034454;28;20485;-69
2023/03/16 08:51:20;;;;;;;4.28;2.92;;;11.40;99.90;;;;;;5035229;28;20051;-69
2023/03/16 08:53:46;;;;;;;6.97;2.65;;;11.40;99.90;;;;;;5039168;28;20036;-69
2023/03/16 08:56:13;;;;;;;5.88;2.75;;;11.50;99.90;;;;;;5038960;28;20043;-69
2023/03/16 08:58:44;;;;;;;3.70;2.50;;;11.50;99.90;;;;;;5033099;28;20022;-69
2023/03/16 09:01:14;;;;;;;4.88;2.42;;;11.60;99.90;;;;;;5036783;28;20076;-69
2023/03/16 09:03:41;;;;;;;7.80;3.25;;;11.60;99.90;;;;;;5039821;28;20026;-69
2023/03/16 09:06:09;;;;;;;6.03;2.53;;;11.60;99.90;;;;;;5038889;28;20029;-69
2023/03/16 09:08:37;;;;;;;5.88;2.60;;;11.60;99.90;;;;;;5036336;28;20374;-69
2023/03/16 09:11:06;;;;;;;4.43;2.58;;;11.70;99.90;;;;;;5039006;28;20168;-69
2023/03/16 09:13:33;;;;;;;5.13;2.22;;;11.80;99.90;;;;;;5035858;28;20024;-69
2023/03/16 09:15:59;;;;;;;6.05;3.13;;;11.80;99.90;;;;;;5036055;28;20505;-69
2023/03/16 09:18:26;;;;;;;3.38;2.70;;;11.80;99.90;;;;;;5041771;28;20013;-70
2023/03/16 09:20:58;;;;;;;3.72;2.60;;;11.90;99.90;;;;;;5033726;28;20072;-69
2023/03/16 09:23:25;;;;;;;8.18;2.97;;;12.00;99.90;;;;;;5031312;28;20024;-69
2023/03/16 09:25:52;;;;;;;8.20;2.75;;;12.10;99.90;;;;;;5036334;28;20062;-70
2023/03/16 09:28:18;;;;;;;5.22;2.70;;;12.00;99.90;;;;;;5035000;28;20066;-69
2023/03/16 09:30:44;;;;;;;6.68;2.25;;;12.10;99.90;;;;;;5036175;28;20051;-70
2023/03/16 09:33:10;;;;;;;8.48;3.28;;;12.10;99.90;;;;;;5034763;28;20030;-69
2023/03/16 09:35:36;;;;;;;7.22;2.55;;;12.20;99.90;;;;;;5035581;28;20398;-69
2023/03/16 09:38:03;;;;;;;3.13;2.30;;;12.20;99.90;;;;;;5038372;28;20027;-71
2023/03/16 09:40:30;;;;;;;5.35;2.20;;;12.20;99.90;;;;;;5039617;28;20048;-70
2023/03/16 09:43:30;;;;;;;6.05;2.30;;;12.30;99.90;;;;;;5037859;28;20104;-70
2023/03/16 09:46:15;;;;;;;4.95;2.60;;;12.40;99.90;;;;;;5036949;28;20037;-70
2023/03/16 09:48:41;;;;;;;7.93;2.70;;;12.50;99.90;;;;;;5038964;28;20025;-70
2023/03/16 09:51:19;;;;;;;3.58;2.17;;;12.60;99.90;;;;;;5039423;28;20049;-70
2023/03/16 09:53:46;;;;;;;4.28;2.40;;;12.60;99.90;;;;;;5039230;28;20040;-70
2023/03/16 09:56:40;;;;;;;4.25;2.50;;;12.60;99.90;;;;;;5040859;28;20534;-70
2023/03/16 09:59:12;;;;;;;5.32;2.10;;;12.60;99.90;;;;;;5038415;28;20034;-70
2023/03/16 10:01:56;;;;;;;7.78;2.38;;;12.70;99.90;;;;;;5038468;28;20033;-70
2023/03/16 10:04:27;;;;;;;7.07;2.38;;;12.70;99.90;;;;;;5034120;28;20097;-70
2023/03/16 10:07:21;;;;;;;7.75;2.50;;;12.70;99.90;;;;;;5038679;28;20102;-70
2023/03/16 10:10:14;;;;;;;9.50;2.42;;;12.70;99.90;;;;;;5041867;28;20040;-70
2023/03/16 10:12:45;;;;;;;3.28;2.25;;;12.80;99.90;;;;;;5037522;28;20409;-70
2023/03/16 10:15:15;;;;;;;5.75;2.17;;;12.90;99.90;;;;;;5040250;28;20025;-69
2023/03/16 10:18:09;;;;;;;7.55;2.28;;;12.90;99.90;;;;;;5040116;28;20017;-70
2023/03/16 10:20:35;;;;;;;3.67;1.90;;;13.00;99.90;;;;;;5039708;28;20496;-71
2023/03/16 10:23:24;;;;;;;5.97;2.40;;;13.00;99.90;;;;;;5039674;28;20496;-69
2023/03/16 10:25:55;;;;;;;2.75;2.00;;;13.10;99.90;;;;;;5034534;28;20025;-70
2023/03/16 10:28:26;;;;;;;4.93;2.10;;;13.20;99.90;;;;;;5037545;28;20400;-70
2023/03/16 10:30:54;;;;;;;5.93;2.88;;;13.30;99.90;;;;;;5037186;28;20485;-70
2023/03/16 10:33:27;;;;;;;3.83;2.13;;;13.40;99.90;;;;;;5037343;28;20025;-69
2023/03/16 10:36:18;;;;;;;3.08;2.10;;;13.40;99.90;;;;;;5040098;28;20031;-70
2023/03/16 10:38:48;;;;;;;6.32;2.40;;;13.50;99.90;;;;;;5038408;28;20028;-70
2023/03/16 10:41:36;;;;;;;4.13;2.10;;;13.50;99.90;;;;;;5040922;28;20033;-70
2023/03/16 10:44:25;;;;;;;8.75;2.10;;;13.60;99.90;;;;;;5035354;28;20252;-70
2023/03/16 10:47:03;;;;;;;5.25;2.42;;;13.60;99.90;;;;;;5033923;28;20122;-70
2023/03/16 10:49:40;;;;;;;8.02;4.63;;;13.60;99.90;;;;;;5036355;28;20018;-70
2023/03/16 10:52:38;;;;;;;5.35;2.30;;;13.70;99.90;;;;;;5042044;28;20049;-70
2023/03/16 10:55:14;;;;;;;4.53;1.80;;;13.60;99.90;;;;;;5036505;28;20054;-69
2023/03/16 10:57:53;;;;;;;7.22;2.30;;;13.60;99.90;;;;;;5036563;28;20072;-70
2023/03/16 11:00:36;;;;;;;5.65;2.10;;;13.70;99.90;;;;;;5039052;28;20013;-70
2023/03/16 11:03:21;;;;;;;5.88;2.38;;;13.70;99.90;;;;;;5036815;28;20033;-70
2023/03/16 11:05:55;;;;;;;4.15;2.60;;;13.70;99.90;;;;;;5041664;28;20493;-70
2023/03/16 11:08:26;;;;;;;2.08;1.85;;;13.80;99.90;;;;;;5037195;28;20036;-70
2023/03/16 11:10:57;;;;;;;6.00;2.30;;;13.90;99.90;;;;;;5037020;28;20025;-69
2023/03/16 11:13:32;;;;;;;3.35;2.50;;;14.00;99.90;;;;;;5038259;28;20079;-70
2023/03/16 11:16:24;;;;;;;4.00;2.17;;;14.00;99.90;;;;;;5034494;28;20021;-70
2023/03/16 11:18:56;;;;;;;3.50;2.08;;;14.00;99.90;;;;;;5041856;28;20100;-70
2023/03/16 11:21:45;;;;;;;4.93;1.90;;;14.10;99.90;;;;;;5034845;28;20132;-70
2023/03/16 11:24:22;;;;;;;6.35;2.13;;;14.20;99.90;;;;;;5038273;28;20022;-70
2023/03/16 11:26:54;;;;;;;5.90;2.63;;;14.40;99.90;;;;;;5041338;28;20397;-70
2023/03/16 11:29:34;;;;;;;3.05;1.92;;;14.40;99.90;;;;;;5037658;28;20026;-69
2023/03/16 11:32:04;;;;;;;3.67;2.10;;;14.40;99.90;;;;;;5035723;28;20034;-70
2023/03/16 11:34:32;;;;;;;2.25;1.83;;;14.40;99.90;;;;;;5035040;28;20394;-71
2023/03/16 11:37:47;;;;;;;6.32;2.05;;;14.40;99.90;;;;;;5034767;28;20056;-70
2023/03/16 11:40:32;;;;;;;4.90;2.00;;;14.40;99.90;;;;;;5037490;28;20077;-70
2023/03/16 11:43:07;;;;;;;4.28;1.98;;;14.40;99.90;;;;;;5035028;28;20032;-69
2023/03/16 11:45:41;;;;;;;6.75;2.47;;;14.50;99.90;;;;;;5042364;28;20029;-69
2023/03/16 11:48:11;;;;;;;3.58;2.03;;;14.50;99.90;;;;;;5036602;28;20072;-71
2023/03/16 11:51:02;;;;;;;4.30;2.10;;;14.60;99.90;;;;;;5035605;28;20563;-72
2023/03/16 11:53:56;;;;;;;6.35;2.10;;;14.70;99.90;;;;;;5037261;28;20033;-70
2023/03/16 11:56:58;;;;;;;9.80;2.42;;;14.80;99.90;;;;;;5037437;28;20061;-70
2023/03/16 11:59:32;;;;;;;6.32;2.28;;;14.90;99.90;;;;;;5037978;28;20026;-70
2023/03/16 12:02:20;;;;;;;3.22;1.98;;;14.90;99.90;;;;;;5039186;28;20036;-70
2023/03/16 12:04:49;;;;;;;8.65;3.10;;;14.80;99.90;;;;;;5038770;28;20021;-70
2023/03/16 12:07:34;;;;;;;9.07;2.00;;;14.80;99.90;;;;;;5039284;28;20029;-70
2023/03/16 12:10:06;;;;;;;5.28;2.17;;;14.80;99.90;;;;;;5033875;28;20013;-70
2023/03/16 12:12:59;;;;;;;7.05;2.08;;;14.80;99.90;;;;;;5037744;28;20136;-71
2023/03/16 12:15:34;;;;;;;7.93;1.98;;;14.80;99.90;;;;;;5037723;28;20028;-70
2023/03/16 12:18:10;;;;;;;4.15;2.20;;;14.90;99.90;;;;;;5033344;28;20022;-70
2023/03/16 12:20:55;;;;;;;5.72;2.05;;;14.90;99.90;;;;;;5036144;28;20032;-70
2023/03/16 12:23:30;;;;;;;5.75;2.35;;;15.00;99.90;;;;;;5042567;28;20033;-71
2023/03/16 12:26:02;;;;;;;5.35;2.40;;;15.00;99.90;;;;;;5043686;28;20120;-70
2023/03/16 12:28:30;;;;;;;4.35;2.60;;;15.00;99.90;;;;;;5043814;28;20025;-70
2023/03/16 12:31:12;;;;;;;6.85;2.17;;;15.00;99.90;;;;;;5038305;28;20519;-70
2023/03/16 12:33:55;;;;;;;8.48;2.40;;;15.10;99.90;;;;;;5036859;28;20061;-70
2023/03/16 12:36:51;;;;;;;5.20;2.20;;;15.10;99.90;;;;;;5040446;28;20151;-70
2023/03/16 12:39:44;;;;;;;7.07;2.42;;;15.10;99.90;;;;;;5035988;28;20566;-70
2023/03/16 12:42:39;;;;;;;5.75;2.80;;;15.20;99.90;;;;;;5036327;28;20026;-70
2023/03/16 12:45:20;;;;;;;6.00;2.20;;;15.20;99.90;;;;;;5032247;28;20091;-70
2023/03/16 12:47:59;;;;;;;6.53;2.20;;;15.20;99.90;;;;;;5036538;28;20644;-70
2023/03/16 12:50:26;;;;;;;5.97;2.50;;;15.20;99.90;;;;;;5038108;28;20401;-71
2023/03/16 12:52:52;;;;;;;6.85;2.20;;;15.30;99.90;;;;;;5037085;28;20060;-70
2023/03/16 12:55:36;;;;;;;5.65;2.00;;;15.40;99.90;;;;;;5042199;28;20544;-70
2023/03/16 12:58:06;;;;;;;7.97;2.75;;;15.50;99.90;;;;;;5037528;28;20762;-70
2023/03/16 13:00:41;;;;;;;6.28;2.05;;;15.40;99.90;;;;;;5036134;28;20473;-70
2023/03/16 13:03:14;;;;;;;7.05;2.10;;;15.40;99.90;;;;;;5035466;28;20536;-70
2023/03/16 13:05:52;;;;;;;6.68;2.33;;;15.40;99.90;;;;;;5035674;28;20366;-70
2023/03/16 13:08:20;;;;;;;4.93;2.20;;;15.50;99.90;;;;;;5036140;28;20025;-70
2023/03/16 13:11:03;;;;;;;3.58;2.03;;;15.40;99.90;;;;;;5035938;28;20029;-70